Flight Track Log - Related Links

Times and Time Zones

All times are in EDT time to prevent confusion due to time zone crossing. See the N3545Z flight status page for this flight to view local times or setup timezone preferences in your user account.

Time Position Orientation Groundspeed Altitude Reporting Facility
EDT Latitude Longitude Course Direction KTS MPH feet Rate Location/Type
Sun 01:29:41 PM 27.2544 -78.9197 293° West 189 217 10,600  Level Miami Center
Sun 01:30:41 PM 27.2786 -78.9761 296° West 199 229 10,400 -350 Descending Miami Center
Sun 01:31:41 PM 27.3069 -79.0306 300° West 213 245 9,900 -450 Descending Miami Center
Sun 01:32:41 PM 27.3353 -79.0942 297° West 220 253 9,500 -450 Descending Miami Center
Sun 01:33:41 PM 27.3719 -79.1533 305° West 225 259 9,000 -450 Descending Miami Center
Sun 01:34:00 PM 26.6291 -77.3721 293° West  Level FlightAware Approximate
Sun 01:34:41 PM 27.4086 -79.2103 306° West 225 259 8,600  Level Miami Center
Sun 01:35:41 PM 27.4411 -79.2647 304° West 220 253 8,100 -300 Descending Miami Center
Sun 01:36:41 PM 27.4717 -79.3122 306° West 217 250 8,000 -50 Descending Miami Center
Sun 01:37:41 PM 27.5022 -79.3667 302° West 206 237 8,000 50 Level Miami Center
Sun 01:38:41 PM 27.5325 -79.4236 301° West 201 231 8,100 50 Climbing Miami Center
Sun 01:39:41 PM 27.5586 -79.4781 298° West 195 224 8,100 -50 Level Miami Center
Sun 01:40:41 PM 27.5869 -79.5278 303° West 195 224 8,000  Descending Miami Center
Sun 01:41:41 PM 27.6069 -79.5753 295° West 195 224 8,100  Climbing Miami Center
Sun 01:42:41 PM 27.6350 -79.6322 299° West 190 219 8,000  Descending Miami Center
Sun 01:43:41 PM 27.6633 -79.6867 300° West 190 219 8,100  Climbing Miami Center
Sun 01:44:41 PM 27.6872 -79.7414 296° West 190 219 8,000  Descending Miami Center
Sun 01:45:41 PM 27.7133 -79.7889 302° West 195 224 8,100 50 Climbing Miami Center
Sun 01:46:41 PM 27.7394 -79.8411 299° West 195 224 8,100 -200 Level Miami Center
Sun 01:47:41 PM 27.7675 -79.9031 297° West 201 231 7,700 -400 Descending Miami Center
Sun 01:48:41 PM 27.7953 -79.9600 299° West 208 239 7,300 -638 Descending Miami Center
Sun 01:51:08 PM 27.8667 -80.1167 297° West 221 254 5,500 -704 Descending Orlando TRACON
Sun 01:52:14 PM 27.9000 -80.1667 307° West 219 252 4,800 -700 Descending Orlando TRACON
Sun 01:53:08 PM 27.9167 -80.2333 286° West 215 247 4,100 -579 Descending Orlando TRACON
Sun 01:54:08 PM 27.9500 -80.2833 307° West 211 243 3,700 -476 Descending Orlando TRACON
Sun 01:55:14 PM 27.9833 -80.3500 300° West 207 238 3,100 -650 Descending Orlando TRACON
Sun 01:56:08 PM 28.0000 -80.4000 291° West 213 245 2,400 -684 Descending Orlando TRACON
Sun 01:57:08 PM 28.0333 -80.4667 300° West 216 249 1,800 -595 Descending Orlando TRACON
Sun 01:58:09 PM 28.0500 -80.5167 291° West 212 244 1,200 -347 Descending Orlando TRACON
Sun 01:59:09 PM 28.0667 -80.5833 286° West 201 231 1,100 -50 Descending Orlando TRACON
Sun 02:00:09 PM 28.0833 -80.6333 291° West 168 193 1,100 -100 Level Orlando TRACON
Sun 02:01:09 PM 28.0833 -80.6833 270° West 135 155 900 -200 Descending Orlando TRACON
Sun 02:03:00 PM 28.1028 -80.6453 304° West  Level Estimated

Login

Don't have an account? Register now (free) for customized features, flight alerts, and more!